OMD124 KFLL-KBYH
Flight info
| Callsign | OMD124 |
|---|---|
| Flight time | N/A |
| Altitude | 38000 |
| Route | HROCK2 SMELZ Q116 JAWJA GRAIV FIBER KISTS |
| Aircraft | A320/M-SDE3FGHIRWY/LB1 |
Departure
| Time | 2026-05-03 22:17 |
|---|---|
| Airport | Fort Lauderdale Hollywood International Airport (KFLL) |
Arrival
| Time | N/A |
|---|---|
| Airport | Arkansas International Airport (KBYH) |
| Time | Latitude | Longitude | Altitude | Speed | Heading |
|---|---|---|---|---|---|
| 2026-05-03 21:15 | 26.07891 | -80.15011 | 16 ft | 0 kts | 89° |
| 2026-05-03 21:39 | 26.07891 | -80.15007 | 16 ft | 3 kts | 89° |
| 2026-05-03 21:39 | 26.07891 | -80.14987 | 16 ft | 1 kts | 89° |
| 2026-05-03 21:39 | 26.07888 | -80.14965 | 15 ft | 5 kts | 105° |
| 2026-05-03 21:40 | 26.07873 | -80.14946 | 16 ft | 0 kts | 147° |
| 2026-05-03 21:58 | 26.07863 | -80.14942 | 15 ft | 5 kts | 169° |
| 2026-05-03 21:59 | 26.07835 | -80.14943 | 15 ft | 8 kts | 192° |
| 2026-05-03 21:59 | 26.07810 | -80.15013 | 15 ft | 17 kts | 275° |
| 2026-05-03 21:59 | 26.07810 | -80.15165 | 13 ft | 23 kts | 270° |
| 2026-05-03 21:59 | 26.07810 | -80.15353 | 11 ft | 22 kts | 271° |
| 2026-05-03 22:00 | 26.07815 | -80.15534 | 13 ft | 22 kts | 272° |
| 2026-05-03 22:00 | 26.07816 | -80.15687 | 14 ft | 20 kts | 268° |
| 2026-05-03 22:00 | 26.07815 | -80.15845 | 15 ft | 21 kts | 270° |
| 2026-05-03 22:00 | 26.07816 | -80.16006 | 18 ft | 20 kts | 270° |
| 2026-05-03 22:01 | 26.07817 | -80.16157 | 19 ft | 20 kts | 270° |
| 2026-05-03 22:01 | 26.07814 | -80.16325 | 18 ft | 23 kts | 266° |
| 2026-05-03 22:01 | 26.07806 | -80.16466 | 18 ft | 14 kts | 269° |
| 2026-05-03 22:01 | 26.07806 | -80.16495 | 18 ft | 0 kts | 270° |
| 2026-05-03 22:06 | 26.07806 | -80.16497 | 18 ft | 2 kts | 270° |
| 2026-05-03 22:06 | 26.07806 | -80.16517 | 18 ft | 4 kts | 269° |
| 2026-05-03 22:07 | 26.07806 | -80.16570 | 18 ft | 9 kts | 271° |
| 2026-05-03 22:07 | 26.07801 | -80.16617 | 17 ft | 5 kts | 242° |
| 2026-05-03 22:07 | 26.07799 | -80.16621 | 17 ft | 0 kts | 239° |
| 2026-05-03 22:15 | 26.07794 | -80.16628 | 18 ft | 4 kts | 232° |
| 2026-05-03 22:15 | 26.07751 | -80.16643 | 16 ft | 9 kts | 180° |
| 2026-05-03 22:15 | 26.07696 | -80.16592 | 16 ft | 13 kts | 101° |
| 2026-05-03 22:15 | 26.07696 | -80.16575 | 16 ft | 0 kts | 93° |
| 2026-05-03 22:16 | 26.07693 | -80.16513 | 17 ft | 34 kts | 92° |
| 2026-05-03 22:16 | 26.07698 | -80.15893 | 18 ft | 119 kts | 90° |
| 2026-05-03 22:17 | 26.07694 | -80.14769 | 268 ft | 157 kts | 87° |
| 2026-05-03 22:17 | 26.07676 | -80.13543 | 1075 ft | 167 kts | 90° |
| 2026-05-03 22:17 | 26.07679 | -80.12219 | 1930 ft | 169 kts | 89° |
| 2026-05-03 22:17 | 26.07697 | -80.10838 | 2501 ft | 190 kts | 89° |
| 2026-05-03 22:18 | 26.07719 | -80.09302 | 3080 ft | 207 kts | 85° |
| 2026-05-03 22:18 | 26.08156 | -80.07712 | 3617 ft | 228 kts | 55° |
| 2026-05-03 22:18 | 26.09350 | -80.06420 | 3912 ft | 262 kts | 28° |
| 2026-05-03 22:18 | 26.11120 | -80.05826 | 4065 ft | 270 kts | 7° |
| 2026-05-03 22:19 | 26.12994 | -80.05487 | 4116 ft | 273 kts | 6° |
| 2026-05-03 22:19 | 26.14870 | -80.05232 | 4125 ft | 272 kts | 1° |
| 2026-05-03 22:19 | 26.16750 | -80.05280 | 4048 ft | 269 kts | 349° |
| 2026-05-03 22:19 | 26.18534 | -80.05826 | 4037 ft | 266 kts | 335° |
| 2026-05-03 22:20 | 26.20200 | -80.06711 | 4282 ft | 264 kts | 329° |
| 2026-05-03 22:20 | 26.21736 | -80.07847 | 5376 ft | 267 kts | 315° |
| 2026-05-03 22:20 | 26.22895 | -80.09461 | 6548 ft | 267 kts | 297° |
| 2026-05-03 22:20 | 26.23667 | -80.11355 | 7641 ft | 267 kts | 289° |
| 2026-05-03 22:21 | 26.24353 | -80.13265 | 8990 ft | 268 kts | 289° |
| 2026-05-03 22:21 | 26.25070 | -80.15223 | 10063 ft | 278 kts | 290° |
| 2026-05-03 22:21 | 26.25816 | -80.17282 | 10722 ft | 299 kts | 287° |
| 2026-05-03 22:21 | 26.26477 | -80.19523 | 11542 ft | 306 kts | 284° |
| 2026-05-03 22:22 | 26.27087 | -80.21806 | 12657 ft | 309 kts | 283° |
| 2026-05-03 22:22 | 26.27677 | -80.24117 | 13828 ft | 310 kts | 282° |
| 2026-05-03 22:22 | 26.28247 | -80.26431 | 14745 ft | 313 kts | 282° |
| 2026-05-03 22:22 | 26.28850 | -80.28801 | 15421 ft | 320 kts | 283° |
| 2026-05-03 22:23 | 26.29488 | -80.31166 | 16429 ft | 319 kts | 283° |
| 2026-05-03 22:23 | 26.30161 | -80.33542 | 17370 ft | 324 kts | 284° |
| 2026-05-03 22:23 | 26.30831 | -80.35963 | 18175 ft | 329 kts | 283° |
| 2026-05-03 22:23 | 26.31463 | -80.38423 | 18880 ft | 333 kts | 282° |
| 2026-05-03 22:24 | 26.32099 | -80.40924 | 19608 ft | 336 kts | 282° |
| 2026-05-03 22:24 | 26.32747 | -80.43442 | 20325 ft | 340 kts | 282° |
| 2026-05-03 22:24 | 26.33405 | -80.45967 | 21118 ft | 341 kts | 282° |
| 2026-05-03 22:24 | 26.34077 | -80.48518 | 21834 ft | 344 kts | 282° |
| 2026-05-03 22:25 | 26.34759 | -80.51077 | 22567 ft | 347 kts | 282° |
| 2026-05-03 22:25 | 26.35452 | -80.53675 | 22999 ft | 351 kts | 282° |
| 2026-05-03 22:25 | 26.36148 | -80.56274 | 23044 ft | 351 kts | 282° |
| 2026-05-03 22:25 | 26.36847 | -80.58872 | 22999 ft | 349 kts | 282° |
| 2026-05-03 22:26 | 26.37546 | -80.61460 | 22951 ft | 349 kts | 282° |
| 2026-05-03 22:26 | 26.38248 | -80.64069 | 23427 ft | 351 kts | 282° |
| 2026-05-03 22:26 | 26.38941 | -80.66678 | 24179 ft | 351 kts | 281° |
| 2026-05-03 22:26 | 26.39638 | -80.69296 | 24837 ft | 354 kts | 282° |
| 2026-05-03 22:27 | 26.40595 | -80.71857 | 25419 ft | 365 kts | 292° |
| 2026-05-03 22:27 | 26.42083 | -80.74205 | 26007 ft | 378 kts | 304° |
| 2026-05-03 22:27 | 26.43914 | -80.76352 | 26656 ft | 382 kts | 306° |
| 2026-05-03 22:27 | 26.45751 | -80.78500 | 27266 ft | 383 kts | 306° |
| 2026-05-03 22:28 | 26.47586 | -80.80669 | 27873 ft | 386 kts | 305° |
| 2026-05-03 22:28 | 26.49402 | -80.82880 | 28358 ft | 390 kts | 304° |
| 2026-05-03 22:28 | 26.51229 | -80.85145 | 28889 ft | 393 kts | 304° |
| 2026-05-03 22:28 | 26.53057 | -80.87416 | 29429 ft | 396 kts | 304° |
| 2026-05-03 22:29 | 26.54919 | -80.89712 | 30002 ft | 399 kts | 304° |
| 2026-05-03 22:29 | 26.56797 | -80.92005 | 30480 ft | 403 kts | 305° |
| 2026-05-03 22:29 | 26.58704 | -80.94312 | 30948 ft | 405 kts | 305° |
| 2026-05-03 22:29 | 26.60631 | -80.96636 | 31423 ft | 408 kts | 305° |
| 2026-05-03 22:30 | 26.62558 | -80.98958 | 32001 ft | 408 kts | 305° |
| 2026-05-03 22:30 | 26.64480 | -81.01281 | 32697 ft | 405 kts | 304° |
| 2026-05-03 22:30 | 26.66385 | -81.03587 | 33417 ft | 402 kts | 304° |
| 2026-05-03 22:30 | 26.68276 | -81.05881 | 34117 ft | 400 kts | 304° |
| 2026-05-03 22:31 | 26.70149 | -81.08156 | 34715 ft | 397 kts | 304° |
| 2026-05-03 22:31 | 26.72013 | -81.10423 | 35292 ft | 394 kts | 304° |
| 2026-05-03 22:31 | 26.73864 | -81.12679 | 35850 ft | 392 kts | 303° |
| 2026-05-03 22:31 | 26.75700 | -81.14920 | 36404 ft | 390 kts | 303° |
| 2026-05-03 22:32 | 26.77530 | -81.17154 | 36947 ft | 388 kts | 303° |
| 2026-05-03 22:32 | 26.79347 | -81.19374 | 37491 ft | 386 kts | 303° |
| 2026-05-03 22:32 | 26.81162 | -81.21589 | 37943 ft | 386 kts | 303° |
| 2026-05-03 22:32 | 26.82977 | -81.23807 | 38047 ft | 389 kts | 303° |
| 2026-05-03 22:33 | 26.84824 | -81.26075 | 38060 ft | 399 kts | 303° |
| 2026-05-03 22:33 | 26.88647 | -81.30779 | 38068 ft | 416 kts | 303° |
| 2026-05-03 22:34 | 26.92587 | -81.35596 | 38057 ft | 421 kts | 303° |
| 2026-05-03 22:34 | 26.96553 | -81.40428 | 38064 ft | 421 kts | 303° |
| 2026-05-03 22:35 | 27.00514 | -81.45271 | 38070 ft | 421 kts | 303° |
| 2026-05-03 22:35 | 27.04493 | -81.50081 | 38063 ft | 426 kts | 308° |
| 2026-05-03 22:35 | 27.06849 | -81.52160 | 38073 ft | 439 kts | 317° |
| 2026-05-03 22:36 | 27.09431 | -81.54016 | 38073 ft | 440 kts | 317° |
| 2026-05-03 22:36 | 27.14558 | -81.57695 | 38074 ft | 440 kts | 317° |
| 2026-05-03 22:37 | 27.19706 | -81.61408 | 38086 ft | 440 kts | 317° |
| 2026-05-03 22:37 | 27.24845 | -81.65126 | 38081 ft | 439 kts | 317° |
| 2026-05-03 22:38 | 27.30020 | -81.68874 | 38083 ft | 439 kts | 316° |
| 2026-05-03 22:38 | 27.35117 | -81.72568 | 38297 ft | 437 kts | 316° |
| 2026-05-03 22:38 | 27.37667 | -81.74409 | 38814 ft | 433 kts | 316° |
| 2026-05-03 22:39 | 27.40183 | -81.76226 | 39200 ft | 430 kts | 316° |
| 2026-05-03 22:39 | 27.42692 | -81.78043 | 39571 ft | 427 kts | 316° |
| 2026-05-03 22:39 | 27.45185 | -81.79844 | 39916 ft | 427 kts | 317° |
| 2026-05-03 22:39 | 27.47865 | -81.81392 | 40047 ft | 438 kts | 324° |
| 2026-05-03 22:40 | 27.50692 | -81.82785 | 40067 ft | 438 kts | 325° |
| 2026-05-03 22:40 | 27.56246 | -81.85470 | 40073 ft | 437 kts | 325° |
| 2026-05-03 22:41 | 27.61845 | -81.88173 | 40077 ft | 439 kts | 325° |
| 2026-05-03 22:41 | 27.67472 | -81.90914 | 40077 ft | 442 kts | 325° |
| 2026-05-03 22:42 | 27.73108 | -81.93671 | 40082 ft | 442 kts | 325° |
| 2026-05-03 22:42 | 27.78756 | -81.96436 | 40086 ft | 442 kts | 325° |
| 2026-05-03 22:43 | 27.84392 | -81.99200 | 40093 ft | 442 kts | 325° |
| 2026-05-03 22:43 | 27.90045 | -82.01967 | 40087 ft | 442 kts | 325° |
| 2026-05-03 22:44 | 27.94778 | -82.04284 | 40091 ft | 442 kts | 325° |
| 2026-05-03 22:44 | 28.00384 | -82.07036 | 40091 ft | 442 kts | 325° |
| 2026-05-03 22:45 | 28.06056 | -82.09829 | 40096 ft | 442 kts | 325° |
| 2026-05-03 22:45 | 28.08738 | -82.11336 | 40095 ft | 430 kts | 317° |
| 2026-05-03 22:45 | 28.11183 | -82.13226 | 40092 ft | 423 kts | 314° |
| 2026-05-03 22:46 | 28.15994 | -82.17076 | 40103 ft | 424 kts | 314° |
| 2026-05-03 22:46 | 28.20809 | -82.20921 | 40103 ft | 424 kts | 314° |
| 2026-05-03 22:47 | 28.25629 | -82.24769 | 40105 ft | 423 kts | 314° |
| 2026-05-03 22:47 | 28.30439 | -82.28612 | 40102 ft | 423 kts | 314° |
| 2026-05-03 22:48 | 28.34996 | -82.32257 | 40103 ft | 423 kts | 314° |
| 2026-05-03 22:48 | 28.36818 | -82.33280 | 39928 ft | 447 kts | 331° |
| 2026-05-03 22:49 | 28.39723 | -82.34485 | 39305 ft | 429 kts | 317° |
| 2026-05-03 22:49 | 28.41950 | -82.36497 | 39227 ft | 401 kts | 306° |
| 2026-05-03 22:49 | 28.43965 | -82.38644 | 39497 ft | 398 kts | 306° |
| 2026-05-03 22:49 | 28.45980 | -82.40825 | 39907 ft | 402 kts | 302° |
| 2026-05-03 22:50 | 28.48454 | -82.42564 | 40082 ft | 440 kts | 322° |
| 2026-05-03 22:50 | 28.53710 | -82.45825 | 40082 ft | 415 kts | 307° |
| 2026-05-03 22:51 | 28.57965 | -82.50136 | 40087 ft | 409 kts | 304° |
| 2026-05-03 22:51 | 28.60096 | -82.52287 | 39963 ft | 410 kts | 306° |
| 2026-05-03 22:51 | 28.62318 | -82.54349 | 39269 ft | 416 kts | 307° |
| 2026-05-03 22:51 | 28.64652 | -82.56338 | 38504 ft | 423 kts | 309° |
| 2026-05-03 22:52 | 28.67073 | -82.58272 | 38173 ft | 424 kts | 310° |
| 2026-05-03 22:52 | 28.69491 | -82.60154 | 38039 ft | 430 kts | 311° |
| 2026-05-03 22:52 | 28.71971 | -82.62083 | 38081 ft | 433 kts | 310° |
| 2026-05-03 22:53 | 28.76956 | -82.66025 | 38074 ft | 434 kts | 310° |
| 2026-05-03 22:53 | 28.81881 | -82.70002 | 38076 ft | 434 kts | 310° |
| 2026-05-03 22:54 | 28.86795 | -82.74004 | 38078 ft | 434 kts | 309° |
| 2026-05-03 22:54 | 28.91718 | -82.78014 | 38081 ft | 435 kts | 310° |
| 2026-05-03 22:55 | 28.96610 | -82.81986 | 38082 ft | 435 kts | 310° |
| 2026-05-03 22:55 | 29.01523 | -82.85971 | 38090 ft | 431 kts | 310° |
| 2026-05-03 22:56 | 29.06401 | -82.89935 | 38089 ft | 430 kts | 310° |
| 2026-05-03 22:56 | 29.11265 | -82.93908 | 38098 ft | 430 kts | 310° |
| 2026-05-03 22:57 | 29.16137 | -82.97891 | 38099 ft | 430 kts | 310° |
| 2026-05-03 22:57 | 29.20995 | -83.01861 | 38097 ft | 430 kts | 310° |
| 2026-05-03 22:58 | 29.25870 | -83.05841 | 38098 ft | 430 kts | 310° |
| 2026-05-03 22:58 | 29.30738 | -83.09830 | 38100 ft | 429 kts | 310° |
| 2026-05-03 22:59 | 29.35585 | -83.13815 | 38100 ft | 429 kts | 310° |
| 2026-05-03 22:59 | 29.40435 | -83.17800 | 38115 ft | 429 kts | 310° |
| 2026-05-03 23:00 | 29.45275 | -83.21777 | 38096 ft | 428 kts | 310° |
| 2026-05-03 23:00 | 29.50122 | -83.25765 | 38098 ft | 428 kts | 310° |
| 2026-05-03 23:01 | 29.54950 | -83.29750 | 38101 ft | 427 kts | 310° |
| 2026-05-03 23:01 | 29.59775 | -83.33740 | 38101 ft | 427 kts | 310° |
| 2026-05-03 23:02 | 29.64605 | -83.37726 | 38105 ft | 428 kts | 310° |
| 2026-05-03 23:02 | 29.69398 | -83.41693 | 38105 ft | 427 kts | 310° |
| 2026-05-03 23:03 | 29.74224 | -83.45691 | 38109 ft | 427 kts | 310° |
| 2026-05-03 23:03 | 29.79044 | -83.49688 | 38113 ft | 427 kts | 310° |
| 2026-05-03 23:04 | 29.83871 | -83.53698 | 38115 ft | 428 kts | 310° |
| 2026-05-03 23:04 | 29.88728 | -83.57732 | 38113 ft | 428 kts | 311° |
| 2026-05-03 23:05 | 29.93517 | -83.61718 | 38116 ft | 428 kts | 311° |
| 2026-05-03 23:05 | 29.98343 | -83.65742 | 38112 ft | 428 kts | 311° |
| 2026-05-03 23:06 | 30.03168 | -83.69764 | 38111 ft | 428 kts | 311° |
| 2026-05-03 23:06 | 30.07991 | -83.73787 | 38111 ft | 428 kts | 311° |
| 2026-05-03 23:07 | 30.12811 | -83.77812 | 38119 ft | 428 kts | 311° |
| 2026-05-03 23:07 | 30.17633 | -83.81852 | 38110 ft | 427 kts | 311° |
| 2026-05-03 23:08 | 30.22314 | -83.86003 | 38119 ft | 423 kts | 309° |
| 2026-05-03 23:08 | 30.26881 | -83.90268 | 38130 ft | 422 kts | 309° |
| 2026-05-03 23:09 | 30.31458 | -83.94538 | 38129 ft | 423 kts | 309° |
| 2026-05-03 23:09 | 30.36058 | -83.98772 | 38126 ft | 423 kts | 309° |
| 2026-05-03 23:10 | 30.40681 | -84.03003 | 38122 ft | 423 kts | 310° |
| 2026-05-03 23:10 | 30.45289 | -84.07238 | 38120 ft | 423 kts | 310° |
| 2026-05-03 23:11 | 30.49883 | -84.11476 | 38117 ft | 423 kts | 310° |
| 2026-05-03 23:11 | 30.54492 | -84.15720 | 38122 ft | 423 kts | 310° |
| 2026-05-03 23:12 | 30.59111 | -84.19976 | 38117 ft | 423 kts | 310° |
| 2026-05-03 23:12 | 30.63712 | -84.24236 | 38128 ft | 424 kts | 310° |
| 2026-05-03 23:13 | 30.68322 | -84.28509 | 38126 ft | 424 kts | 310° |
| 2026-05-03 23:13 | 30.72938 | -84.32787 | 38125 ft | 425 kts | 310° |
| 2026-05-03 23:14 | 30.77550 | -84.37074 | 38129 ft | 425 kts | 310° |
| 2026-05-03 23:14 | 30.82173 | -84.41367 | 38127 ft | 425 kts | 310° |
| 2026-05-03 23:15 | 30.86786 | -84.45664 | 38129 ft | 425 kts | 310° |
| 2026-05-03 23:15 | 30.91421 | -84.49981 | 38125 ft | 426 kts | 310° |
| 2026-05-03 23:16 | 30.96041 | -84.54292 | 38129 ft | 426 kts | 311° |
| 2026-05-03 23:16 | 31.00670 | -84.58613 | 38131 ft | 426 kts | 311° |
| 2026-05-03 23:17 | 31.05211 | -84.63014 | 38134 ft | 424 kts | 309° |
| 2026-05-03 23:17 | 31.09692 | -84.67503 | 38136 ft | 424 kts | 309° |
| 2026-05-03 23:18 | 31.14145 | -84.71974 | 38127 ft | 425 kts | 310° |
| 2026-05-03 23:18 | 31.18654 | -84.76456 | 38127 ft | 426 kts | 310° |
| 2026-05-03 23:19 | 31.23163 | -84.80931 | 38132 ft | 426 kts | 310° |
| 2026-05-03 23:19 | 31.27686 | -84.85423 | 38130 ft | 426 kts | 310° |
| 2026-05-03 23:20 | 31.30113 | -84.87839 | 38128 ft | 426 kts | 310° |
| 2026-05-03 23:20 | 31.31938 | -84.90377 | 38099 ft | 409 kts | 301° |
| 2026-05-03 23:20 | 31.33973 | -84.92758 | 38250 ft | 421 kts | 310° |
| 2026-05-03 23:20 | 31.36281 | -84.94911 | 38117 ft | 429 kts | 314° |
| 2026-05-03 23:21 | 31.38703 | -84.96969 | 38131 ft | 432 kts | 315° |
| 2026-05-03 23:21 | 31.43506 | -85.01171 | 38129 ft | 429 kts | 313° |
| 2026-05-03 23:22 | 31.50314 | -85.07922 | 38132 ft | 426 kts | 310° |
| 2026-05-03 23:22 | 31.54774 | -85.12501 | 38135 ft | 427 kts | 310° |
| 2026-05-03 23:23 | 31.59276 | -85.17058 | 38136 ft | 428 kts | 311° |
| 2026-05-03 23:23 | 31.63790 | -85.21594 | 38136 ft | 428 kts | 311° |
| 2026-05-03 23:24 | 31.68320 | -85.26146 | 38136 ft | 431 kts | 311° |
| 2026-05-03 23:24 | 31.71346 | -85.29194 | 38133 ft | 433 kts | 311° |